Time;durP1;ratioP1;P1;durP2;ratioP2;P2;SDS_P1;SDS_P2;PMS_P1;PMS_P2;Temp;Humidity;BMP_temperature;BMP_pressure;BME280_temperature;BME280_humidity;BME280_pressure;Samples;Min_cycle;Max_cycle;Signal;HPM_P1;HPM_P2
2023/05/09 00:01:51;;;;;;;0.25;0.25;;;22.40;66.50;;;;;;6168748;28;20039;-56
2023/05/09 00:04:55;;;;;;;0.30;0.30;;;22.30;66.50;;;;;;6169135;28;20042;-57
2023/05/09 00:07:57;;;;;;;0.43;0.38;;;22.40;66.80;;;;;;6169310;28;20314;-55
2023/05/09 00:10:58;;;;;;;;;;;22.10;66.70;;;;;;6170241;28;20457;-56
2023/05/09 00:14:01;;;;;;;0.30;0.20;;;22.50;67.10;;;;;;6166823;28;19926;-56
2023/05/09 00:17:02;;;;;;;0.20;0.20;;;22.00;66.50;;;;;;6169056;28;20045;-57
2023/05/09 00:20:07;;;;;;;;;;;22.30;66.90;;;;;;6169506;28;20042;-56
2023/05/09 00:23:09;;;;;;;0.40;0.40;;;22.40;67.20;;;;;;6165555;28;20655;-55
2023/05/09 00:26:11;;;;;;;0.35;0.30;;;22.10;67.00;;;;;;6168143;28;20097;-56
2023/05/09 00:29:17;;;;;;;0.63;0.32;;;22.30;67.10;;;;;;6172133;28;20035;-56
2023/05/09 00:32:22;;;;;;;0.30;0.30;;;22.30;67.20;;;;;;6173144;28;20065;-56
2023/05/09 00:35:23;;;;;;;0.20;0.20;;;22.40;67.20;;;;;;6173499;28;20051;-56
2023/05/09 00:38:25;;;;;;;;;;;22.40;67.40;;;;;;6174175;28;20039;-55
2023/05/09 00:41:26;;;;;;;0.20;0.20;;;22.40;67.60;;;;;;6171474;28;19929;-56
2023/05/09 00:44:28;;;;;;;0.82;0.40;;;22.00;67.00;;;;;;6170161;28;20098;-56
2023/05/09 00:47:30;;;;;;;0.40;0.30;;;22.30;67.20;;;;;;6170187;28;20065;-56
2023/05/09 00:50:31;;;;;;;0.32;0.32;;;22.10;67.20;;;;;;6170501;28;20039;-56
2023/05/09 00:53:33;;;;;;;0.40;0.32;;;22.10;67.20;;;;;;6173385;28;20046;-56
2023/05/09 00:56:35;;;;;;;0.30;0.30;;;22.30;67.40;;;;;;6174922;28;20043;-55
2023/05/09 00:59:37;;;;;;;;;;;22.30;67.50;;;;;;6172669;28;20039;-57
2023/05/09 01:02:39;;;;;;;0.20;0.15;;;22.20;67.60;;;;;;6191715;23;19922;-65
2023/05/09 01:05:51;;;;;;;0.50;0.30;;;22.30;67.70;;;;;;6165921;28;20055;-66
2023/05/09 01:09:00;;;;;;;0.17;0.17;;;22.50;67.60;;;;;;6167630;28;20445;-66
2023/05/09 01:12:11;;;;;;;0.30;0.30;;;22.40;67.70;;;;;;6170661;28;20391;-66
2023/05/09 01:15:20;;;;;;;0.10;0.10;;;22.30;67.70;;;;;;6170527;28;20093;-66
2023/05/09 01:18:29;;;;;;;0.50;0.50;;;21.80;67.40;;;;;;6169604;28;20051;-66
2023/05/09 01:21:32;;;;;;;0.20;0.20;;;22.20;67.60;;;;;;6169235;28;20042;-66
2023/05/09 01:24:57;;;;;;;0.20;0.20;;;22.40;67.80;;;;;;6170637;28;20050;-66
2023/05/09 01:28:11;;;;;;;0.10;0.10;;;22.30;67.80;;;;;;6170719;28;20045;-66
2023/05/09 01:31:16;;;;;;;0.20;0.20;;;22.30;67.90;;;;;;6170369;28;20498;-66
2023/05/09 01:34:19;;;;;;;0.20;0.20;;;22.20;68.00;;;;;;6170052;28;20035;-67
2023/05/09 01:37:27;;;;;;;0.20;0.20;;;22.20;68.70;;;;;;6168704;28;20098;-66
2023/05/09 01:40:32;;;;;;;0.10;0.10;;;22.40;68.10;;;;;;6170180;28;20043;-66
2023/05/09 01:43:35;;;;;;;0.30;0.20;;;22.80;68.40;;;;;;6168832;28;20071;-66
2023/05/09 01:46:38;;;;;;;0.15;0.15;;;22.40;68.20;;;;;;6169431;28;20043;-66
2023/05/09 01:49:41;;;;;;;0.55;0.20;;;22.30;68.10;;;;;;6169894;28;20043;-66
2023/05/09 01:52:46;;;;;;;0.10;0.10;;;22.20;68.10;;;;;;6169292;28;20577;-67
2023/05/09 01:55:50;;;;;;;0.20;0.20;;;22.10;68.10;;;;;;6168139;28;20509;-67
2023/05/09 01:58:54;;;;;;;0.17;0.17;;;22.30;68.30;;;;;;6169733;28;20062;-66
2023/05/09 02:01:57;;;;;;;0.20;0.20;;;22.00;68.10;;;;;;6135469;28;20062;-66
2023/05/09 02:05:01;;;;;;;0.15;0.15;;;22.00;68.10;;;;;;6168949;28;20560;-66
2023/05/09 02:08:05;;;;;;;0.13;0.10;;;22.30;68.40;;;;;;6169031;28;20063;-66
2023/05/09 02:11:07;;;;;;;0.25;0.20;;;21.90;68.10;;;;;;6169329;28;20397;-66
2023/05/09 02:14:09;;;;;;;;;;;22.20;68.50;;;;;;6169355;28;20042;-67
2023/05/09 02:17:15;;;;;;;0.13;0.13;;;22.20;68.70;;;;;;6169297;28;19922;-66
2023/05/09 02:20:18;;;;;;;0.10;0.10;;;22.20;68.50;;;;;;6168579;28;20050;-66
2023/05/09 02:23:20;;;;;;;0.30;0.30;;;22.30;68.70;;;;;;6169154;28;20109;-66
2023/05/09 02:26:21;;;;;;;0.20;0.20;;;22.40;68.80;;;;;;6169312;28;20039;-66
2023/05/09 02:29:29;;;;;;;0.30;0.10;;;22.10;68.80;;;;;;6169123;28;20549;-66
2023/05/09 02:32:33;;;;;;;0.30;0.17;;;21.80;68.40;;;;;;6168451;28;20617;-66
2023/05/09 02:35:35;;;;;;;0.10;0.10;;;21.90;68.50;;;;;;6151356;28;20105;-66
2023/05/09 02:38:37;;;;;;;0.17;0.10;;;22.30;69.40;;;;;;6168228;28;20466;-66
2023/05/09 02:41:38;;;;;;;0.10;0.10;;;22.20;68.90;;;;;;6168449;28;20043;-66
2023/05/09 02:44:39;;;;;;;;;;;22.20;69.60;;;;;;6169610;28;20078;-66
2023/05/09 02:47:42;;;;;;;0.10;0.10;;;22.00;69.10;;;;;;6167666;28;19945;-66
2023/05/09 02:50:44;;;;;;;0.10;0.10;;;22.30;69.00;;;;;;6167910;28;20039;-66
2023/05/09 02:53:48;;;;;;;0.10;0.10;;;22.20;69.10;;;;;;6167880;28;20046;-66
2023/05/09 02:56:50;;;;;;;0.10;0.10;;;22.30;69.10;;;;;;6167956;28;20421;-67
2023/05/09 02:59:53;;;;;;;0.10;0.10;;;21.90;69.10;;;;;;6166441;28;20572;-66
2023/05/09 03:02:55;;;;;;;;;;;21.90;69.10;;;;;;6168079;28;20060;-67
2023/05/09 03:05:56;;;;;;;0.10;0.10;;;22.50;69.60;;;;;;6169017;28;19988;-66
2023/05/09 03:08:58;;;;;;;;;;;22.30;69.20;;;;;;6168435;28;20058;-66
2023/05/09 03:12:00;;;;;;;0.20;0.20;;;21.90;69.40;;;;;;6167788;28;20299;-66
2023/05/09 03:15:04;;;;;;;;;;;22.20;69.40;;;;;;6168571;28;20097;-66
2023/05/09 03:18:06;;;;;;;0.10;0.10;;;22.00;67.80;;;;;;6169091;28;20533;-58
2023/05/09 03:21:07;;;;;;;0.20;0.10;;;22.10;69.30;;;;;;6166415;28;20042;-58
2023/05/09 03:24:11;;;;;;;0.10;0.10;;;22.30;69.50;;;;;;6169219;28;20049;-58
2023/05/09 03:27:13;;;;;;;0.10;0.10;;;22.00;69.50;;;;;;6149023;28;20059;-58
2023/05/09 03:30:16;;;;;;;0.10;0.10;;;22.30;69.80;;;;;;6167528;28;20050;-58
2023/05/09 03:33:20;;;;;;;0.10;0.10;;;22.10;69.60;;;;;;6168780;28;20587;-58
2023/05/09 03:36:23;;;;;;;0.15;0.15;;;22.30;69.60;;;;;;6167551;28;20031;-58
2023/05/09 03:39:25;;;;;;;0.10;0.10;;;22.20;69.50;;;;;;6166840;28;20038;-58
2023/05/09 03:42:30;;;;;;;0.10;0.10;;;22.10;69.70;;;;;;6167188;28;20031;-58
2023/05/09 03:45:37;;;;;;;0.10;0.10;;;21.70;70.10;;;;;;6166113;28;20086;-58
2023/05/09 03:48:42;;;;;;;0.10;0.10;;;22.00;69.60;;;;;;6165517;28;20045;-58
2023/05/09 03:51:43;;;;;;;0.10;0.10;;;22.30;69.90;;;;;;6168085;28;20035;-58
2023/05/09 03:54:49;;;;;;;0.10;0.10;;;22.00;69.80;;;;;;6168194;28;20078;-58
2023/05/09 03:57:51;;;;;;;0.10;0.10;;;22.20;70.30;;;;;;6166663;28;20594;-58
2023/05/09 04:00:53;;;;;;;0.10;0.10;;;22.20;70.30;;;;;;6168084;28;20031;-58
2023/05/09 04:03:57;;;;;;;0.10;0.10;;;22.20;70.70;;;;;;6167997;28;20035;-58
2023/05/09 04:07:00;;;;;;;0.10;0.10;;;22.30;70.50;;;;;;6167309;28;20035;-58
2023/05/09 04:10:02;;;;;;;0.10;0.10;;;22.30;70.40;;;;;;6167532;28;20042;-59
2023/05/09 04:13:04;;;;;;;0.10;0.10;;;22.20;71.10;;;;;;6167085;28;20039;-58
2023/05/09 04:16:06;;;;;;;0.10;0.10;;;22.40;70.50;;;;;;6168052;28;20109;-58
2023/05/09 04:19:09;;;;;;;0.10;0.10;;;22.20;70.60;;;;;;6166742;28;20042;-58
2023/05/09 04:22:17;;;;;;;0.10;0.10;;;21.70;70.50;;;;;;6166088;28;20097;-58
2023/05/09 04:25:19;;;;;;;0.10;0.10;;;22.30;70.10;;;;;;6165547;28;20046;-58
2023/05/09 04:28:21;;;;;;;0.20;0.20;;;22.20;70.00;;;;;;6166121;28;20047;-58
2023/05/09 04:31:25;;;;;;;0.10;0.10;;;22.40;69.90;;;;;;6165769;28;20565;-58
2023/05/09 04:34:31;;;;;;;0.10;0.10;;;22.40;69.80;;;;;;6166495;28;20109;-58
2023/05/09 04:37:37;;;;;;;0.10;0.10;;;22.30;69.50;;;;;;6166580;28;20063;-58
2023/05/09 04:40:39;;;;;;;0.00;0.00;;;22.10;68.90;;;;;;6166727;28;20113;-58
2023/05/09 04:43:41;;;;;;;0.10;0.10;;;22.40;69.60;;;;;;6170371;28;20460;-58
2023/05/09 04:46:44;;;;;;;0.10;0.10;;;22.40;69.50;;;;;;6170972;28;20039;-58
2023/05/09 04:49:46;;;;;;;0.10;0.10;;;22.10;69.60;;;;;;6169762;28;20035;-58
2023/05/09 04:52:48;;;;;;;0.05;0.05;;;22.30;69.70;;;;;;6167834;28;20035;-58
2023/05/09 04:55:50;;;;;;;;;;;22.20;69.80;;;;;;6169477;28;20047;-58
2023/05/09 04:58:52;;;;;;;0.17;0.17;;;22.30;70.30;;;;;;6169147;28;20530;-58
2023/05/09 05:01:54;;;;;;;0.10;0.10;;;21.80;69.20;;;;;;6168033;28;20126;-58
2023/05/09 05:04:56;;;;;;;0.10;0.10;;;22.20;90.10;;;;;;6169849;28;20609;-58
2023/05/09 05:08:14;;;;;;;0.10;0.10;;;22.00;68.40;;;;;;6169971;28;20129;-58
2023/05/09 05:11:17;;;;;;;0.10;0.10;;;22.10;68.30;;;;;;6169196;28;20631;-58
2023/05/09 05:14:22;;;;;;;0.10;0.10;;;22.00;68.20;;;;;;6168935;28;20043;-58
2023/05/09 05:17:24;;;;;;;0.20;0.20;;;22.10;68.10;;;;;;6169126;28;20047;-58
2023/05/09 05:20:27;;;;;;;0.10;0.10;;;22.10;68.00;;;;;;6170171;28;20068;-58
2023/05/09 05:23:29;;;;;;;0.10;0.10;;;22.20;68.00;;;;;;6168977;28;20078;-59
2023/05/09 05:26:31;;;;;;;;;;;22.00;67.90;;;;;;6169800;28;20066;-59
2023/05/09 05:29:32;;;;;;;0.10;0.10;;;22.20;68.20;;;;;;6169040;28;19944;-58
2023/05/09 05:32:35;;;;;;;0.10;0.10;;;22.10;67.80;;;;;;6168615;28;20166;-58
2023/05/09 05:35:39;;;;;;;;;;;22.10;67.60;;;;;;6169882;28;20529;-58
2023/05/09 05:38:41;;;;;;;0.17;0.17;;;22.40;68.00;;;;;;6168331;28;19926;-56
2023/05/09 05:41:43;;;;;;;0.20;0.20;;;22.10;67.60;;;;;;6168377;28;20043;-58
2023/05/09 05:44:45;;;;;;;0.20;0.20;;;21.60;67.90;;;;;;6168112;28;20062;-58
2023/05/09 05:47:47;;;;;;;0.43;0.30;;;21.90;67.30;;;;;;6168706;28;20030;-59
2023/05/09 05:50:50;;;;;;;0.17;0.10;;;22.20;67.40;;;;;;6166137;28;20043;-59
2023/05/09 05:53:55;;;;;;;0.20;0.20;;;22.10;67.80;;;;;;6165841;28;20046;-59
2023/05/09 05:56:58;;;;;;;0.88;0.57;;;22.20;67.40;;;;;;6166502;28;20050;-59
2023/05/09 06:00:00;;;;;;;;;;;22.10;67.30;;;;;;6165414;28;20457;-60
2023/05/09 06:03:01;;;;;;;1.23;0.17;;;22.30;67.50;;;;;;6161869;28;19929;-60
2023/05/09 06:06:15;;;;;;;1.38;0.20;;;22.20;67.30;;;;;;6160974;28;20042;-59
2023/05/09 06:09:16;;;;;;;0.10;0.10;;;22.00;67.10;;;;;;6161130;28;20046;-60
2023/05/09 06:12:18;;;;;;;0.10;0.10;;;22.00;67.00;;;;;;6162860;28;20034;-59
2023/05/09 06:15:20;;;;;;;0.10;0.10;;;20.90;66.40;;;;;;6160923;28;20133;-59
2023/05/09 06:18:24;;;;;;;0.22;0.22;;;22.00;67.00;;;;;;6159290;28;20031;-59
2023/05/09 06:21:26;;;;;;;0.20;0.20;;;22.10;67.00;;;;;;6157714;28;20043;-59
2023/05/09 06:24:31;;;;;;;0.20;0.20;;;22.10;66.60;;;;;;6137655;28;20816;-59
2023/05/09 06:27:37;;;;;;;0.30;0.20;;;22.20;67.20;;;;;;6134316;28;20153;-59
2023/05/09 06:30:39;;;;;;;0.20;0.20;;;22.10;66.60;;;;;;6156932;28;20042;-59
2023/05/09 06:33:41;;;;;;;0.32;0.20;;;22.00;67.60;;;;;;6157804;28;20109;-59
2023/05/09 06:36:42;;;;;;;;;;;21.80;66.40;;;;;;6130588;28;20042;-60
2023/05/09 06:39:46;;;;;;;0.20;0.20;;;22.10;66.90;;;;;;6157918;28;19921;-59
2023/05/09 06:42:50;;;;;;;0.10;0.10;;;22.20;66.90;;;;;;6157816;28;20042;-59
2023/05/09 06:45:52;;;;;;;0.20;0.20;;;22.40;67.10;;;;;;6145523;28;20066;-59
2023/05/09 06:48:53;;;;;;;1.45;0.45;;;22.10;66.70;;;;;;6136485;28;20636;-59
2023/05/09 06:51:56;;;;;;;0.20;0.20;;;22.20;67.00;;;;;;6154883;28;20062;-63
2023/05/09 06:54:57;;;;;;;0.20;0.20;;;22.20;66.90;;;;;;6131461;28;20633;-64
2023/05/09 06:57:58;;;;;;;;;;;21.90;67.00;;;;;;6138655;28;20709;-61
2023/05/09 07:01:00;;;;;;;0.10;0.10;;;22.20;66.90;;;;;;6145177;28;19984;-64
2023/05/09 07:04:01;;;;;;;;;;;22.10;67.00;;;;;;6119274;28;20030;-60
2023/05/09 07:07:03;;;;;;;0.50;0.20;;;22.20;67.20;;;;;;6116912;28;19972;-61
2023/05/09 07:10:06;;;;;;;0.22;0.13;;;22.30;66.90;;;;;;6125598;28;20043;-61
2023/05/09 07:13:13;;;;;;;0.10;0.10;;;22.20;66.70;;;;;;6112521;28;20031;-61
2023/05/09 07:16:16;;;;;;;;;;;22.20;66.90;;;;;;6141374;28;20073;-61
2023/05/09 07:19:18;;;;;;;0.20;0.10;;;22.00;66.50;;;;;;6145714;28;20070;-58
2023/05/09 07:22:21;;;;;;;0.20;0.10;;;22.30;66.80;;;;;;6121225;28;20042;-59
2023/05/09 07:25:23;;;;;;;0.10;0.10;;;22.30;66.10;;;;;;6116379;28;20035;-60
2023/05/09 07:28:25;;;;;;;0.20;0.20;;;22.20;66.80;;;;;;6120475;28;20880;-61
2023/05/09 07:31:27;;;;;;;0.55;0.20;;;21.80;66.00;;;;;;6144136;28;20034;-60
2023/05/09 07:34:28;;;;;;;0.20;0.13;;;22.20;66.30;;;;;;6144013;28;20125;-60
2023/05/09 07:37:30;;;;;;;;;;;22.30;66.30;;;;;;6143665;28;20046;-61
2023/05/09 07:40:35;;;;;;;0.22;0.20;;;22.40;66.60;;;;;;6144673;28;19929;-61
2023/05/09 07:43:36;;;;;;;0.20;0.20;;;22.20;66.00;;;;;;6142628;28;20045;-61
2023/05/09 07:46:40;;;;;;;0.65;0.30;;;20.70;65.50;;;;;;6113611;28;20879;-61
2023/05/09 07:49:46;;;;;;;0.30;0.20;;;22.20;66.40;;;;;;6097630;28;20069;-53
2023/05/09 07:52:51;;;;;;;0.10;0.10;;;22.40;66.30;;;;;;6127396;28;20039;-56
2023/05/09 07:55:53;;;;;;;0.15;0.15;;;22.00;65.80;;;;;;6140807;28;20046;-57
2023/05/09 07:58:55;;;;;;;0.30;0.30;;;22.30;66.20;;;;;;6127108;28;20101;-59
2023/05/09 08:01:57;;;;;;;;;;;22.20;65.80;;;;;;6147503;28;20031;-58
2023/05/09 08:05:02;;;;;;;0.80;0.30;;;22.50;65.90;;;;;;6146514;28;20625;-51
2023/05/09 08:08:04;;;;;;;0.57;0.20;;;22.30;66.30;;;;;;6146074;28;20049;-52
2023/05/09 08:11:06;;;;;;;0.30;0.30;;;22.50;66.00;;;;;;6146300;28;20031;-67
2023/05/09 08:14:08;;;;;;;0.22;0.20;;;22.40;66.60;;;;;;6121453;28;20041;-62
2023/05/09 08:17:09;;;;;;;0.25;0.17;;;22.40;66.00;;;;;;6124443;28;20046;-65
2023/05/09 08:20:12;;;;;;;0.32;0.20;;;22.30;65.90;;;;;;6120188;28;20756;-65
2023/05/09 08:23:14;;;;;;;0.10;0.10;;;22.50;65.80;;;;;;6151910;28;20070;-65
2023/05/09 08:26:15;;;;;;;0.35;0.20;;;22.40;65.70;;;;;;6141605;28;20078;-64
2023/05/09 08:29:17;;;;;;;0.40;0.30;;;22.50;66.00;;;;;;6138913;28;20749;-67
2023/05/09 08:32:21;;;;;;;0.20;0.20;;;22.50;65.60;;;;;;6144031;28;20035;-69
2023/05/09 08:35:23;;;;;;;0.20;0.20;;;22.50;65.70;;;;;;6142613;28;20042;-64
2023/05/09 08:38:25;;;;;;;0.20;0.20;;;22.60;65.60;;;;;;6150580;28;20058;-59
2023/05/09 08:41:34;;;;;;;0.75;0.50;;;22.50;65.20;;;;;;6150329;28;20050;-61
2023/05/09 08:45:00;;;;;;;0.90;0.65;;;22.50;65.00;;;;;;6740623;23;20111;31
2023/05/09 08:48:02;;;;;;;0.43;0.35;;;22.70;62.20;;;;;;6368767;23;20162;-65
2023/05/09 08:51:05;;;;;;;0.90;0.60;;;22.50;64.80;;;;;;6137320;28;20839;-66
2023/05/09 08:54:08;;;;;;;0.50;0.40;;;22.50;65.30;;;;;;6143240;28;20046;-67
2023/05/09 08:57:10;;;;;;;0.55;0.43;;;22.60;65.00;;;;;;6142966;28;20825;-59
2023/05/09 09:00:13;;;;;;;0.60;0.40;;;22.60;65.00;;;;;;6141482;28;20702;-60
2023/05/09 09:03:19;;;;;;;0.30;0.30;;;22.70;64.90;;;;;;6091240;28;20108;-59
2023/05/09 09:06:24;;;;;;;0.30;0.30;;;22.40;64.80;;;;;;6104020;28;20045;-59
2023/05/09 09:09:27;;;;;;;0.30;0.30;;;22.50;64.80;;;;;;6111488;28;20031;-62
2023/05/09 09:12:29;;;;;;;0.55;0.45;;;22.70;65.00;;;;;;6114809;28;20046;-61
2023/05/09 09:15:35;;;;;;;0.30;0.30;;;24.10;65.40;;;;;;6115654;28;20046;-61
2023/05/09 09:18:36;;;;;;;0.43;0.40;;;22.80;64.90;;;;;;6086581;28;20030;-59
2023/05/09 09:21:44;;;;;;;0.25;0.20;;;22.70;64.60;;;;;;6137559;28;20122;-59
2023/05/09 09:24:46;;;;;;;0.30;0.30;;;22.70;64.60;;;;;;6117225;28;20039;-62
2023/05/09 09:27:47;;;;;;;0.30;0.30;;;22.70;64.90;;;;;;6129802;28;20039;-63
2023/05/09 09:30:49;;;;;;;0.25;0.20;;;22.60;64.90;;;;;;6132809;28;20027;-61
2023/05/09 09:33:50;;;;;;;;;;;22.50;64.50;;;;;;6151889;28;20649;-62
2023/05/09 09:36:52;;;;;;;;;;;23.00;65.40;;;;;;6132140;28;20547;-60
2023/05/09 09:39:54;;;;;;;0.20;0.20;;;22.80;65.10;;;;;;6141857;28;19921;-61
2023/05/09 09:42:56;;;;;;;0.38;0.30;;;22.60;64.90;;;;;;6139844;28;20442;-62
2023/05/09 09:46:00;;;;;;;;;;;22.50;65.00;;;;;;6140595;28;20105;-60
2023/05/09 09:49:01;;;;;;;0.50;0.20;;;22.70;65.30;;;;;;6140470;28;20028;-58
2023/05/09 09:52:03;;;;;;;0.20;0.20;;;22.70;64.70;;;;;;6109520;28;20034;-58
2023/05/09 09:55:06;;;;;;;0.20;0.20;;;22.40;64.70;;;;;;6108698;28;20816;-58
2023/05/09 09:58:16;;;;;;;0.60;0.45;;;22.70;64.60;;;;;;6106199;28;20035;-58
2023/05/09 10:01:18;;;;;;;0.30;0.28;;;22.90;64.30;;;;;;6125626;28;20767;-59
2023/05/09 10:04:20;;;;;;;0.77;0.40;;;23.00;64.40;;;;;;6148351;28;20061;-58
2023/05/09 10:07:22;;;;;;;0.30;0.30;;;22.80;63.90;;;;;;6147387;28;20046;-59
2023/05/09 10:10:27;;;;;;;0.30;0.30;;;22.90;63.70;;;;;;6130782;28;20339;-59
2023/05/09 10:13:31;;;;;;;0.47;0.30;;;22.80;64.20;;;;;;6114680;28;20035;-63
2023/05/09 10:16:33;;;;;;;0.30;0.28;;;22.70;64.00;;;;;;6138565;28;20054;-59
2023/05/09 10:19:47;;;;;;;0.30;0.20;;;23.20;64.30;;;;;;6140695;28;20410;-59
2023/05/09 10:22:52;;;;;;;0.20;0.20;;;22.90;63.80;;;;;;6145430;28;20619;-59
2023/05/09 10:26:04;;;;;;;0.95;0.30;;;23.30;64.00;;;;;;6143332;28;20050;-59
2023/05/09 10:29:09;;;;;;;1.42;1.00;;;22.90;63.50;;;;;;6142341;28;20039;-59
2023/05/09 10:32:15;;;;;;;2.35;1.05;;;22.70;63.30;;;;;;6119188;28;20145;-59
2023/05/09 10:35:18;;;;;;;1.45;0.60;;;22.80;62.90;;;;;;6134935;28;20755;-59
2023/05/09 10:38:21;;;;;;;2.42;1.10;;;22.60;62.70;;;;;;6120462;28;20239;-59
2023/05/09 10:41:24;;;;;;;1.75;0.70;;;22.80;62.70;;;;;;6133257;28;20074;-59
2023/05/09 10:44:26;;;;;;;1.85;0.80;;;22.60;62.40;;;;;;6142424;28;20096;-59
2023/05/09 10:47:32;;;;;;;1.85;0.77;;;22.60;62.30;;;;;;6139923;28;20041;-59
2023/05/09 10:50:34;;;;;;;1.02;0.50;;;22.60;62.70;;;;;;6150597;28;20612;-59
2023/05/09 10:53:42;;;;;;;3.13;1.35;;;22.60;63.10;;;;;;6146970;28;20047;-59
2023/05/09 10:56:44;;;;;;;1.05;0.70;;;22.60;62.50;;;;;;6149393;28;20097;-59
2023/05/09 10:59:46;;;;;;;1.00;0.60;;;22.70;62.80;;;;;;6147185;28;20045;-59
2023/05/09 11:03:02;;;;;;;;;;;22.60;63.00;;;;;;6150672;28;20034;-58
2023/05/09 11:06:07;;;;;;;0.57;0.32;;;22.50;63.00;;;;;;6149860;28;19922;-58
2023/05/09 11:09:23;;;;;;;0.30;0.30;;;22.70;60.40;;;;;;6153469;28;20323;-59
2023/05/09 11:12:25;;;;;;;0.47;0.30;;;22.50;63.20;;;;;;6150517;28;20046;-58
2023/05/09 11:15:29;;;;;;;0.50;0.20;;;22.30;63.20;;;;;;6156514;28;20039;-58
2023/05/09 11:18:31;;;;;;;0.25;0.20;;;22.70;63.30;;;;;;6153360;28;20046;-59
2023/05/09 11:21:36;;;;;;;0.50;0.30;;;22.80;63.30;;;;;;6137594;28;20700;-59
2023/05/09 11:24:38;;;;;;;0.43;0.43;;;22.80;62.80;;;;;;6154834;28;20720;-59
2023/05/09 11:27:43;;;;;;;0.30;0.30;;;22.50;63.10;;;;;;6153421;28;20035;-59
2023/05/09 11:30:45;;;;;;;0.68;0.20;;;22.60;63.10;;;;;;6133927;28;20034;-61
2023/05/09 11:33:55;;;;;;;0.40;0.30;;;22.70;63.60;;;;;;6149407;28;20050;-60
2023/05/09 11:37:08;;;;;;;0.60;0.30;;;22.60;63.10;;;;;;6102113;28;20031;-60
2023/05/09 11:40:12;;;;;;;0.38;0.28;;;22.90;63.90;;;;;;6137959;28;20109;-62
2023/05/09 11:43:14;;;;;;;0.63;0.32;;;22.90;63.30;;;;;;6135084;28;20181;-62
2023/05/09 11:46:16;;;;;;;0.20;0.20;;;22.90;63.50;;;;;;6151965;28;20039;-63
2023/05/09 11:49:21;;;;;;;0.20;0.20;;;23.10;63.70;;;;;;6138202;28;20035;-61
2023/05/09 11:52:24;;;;;;;0.30;0.20;;;23.40;63.90;;;;;;6129460;28;20038;-63
2023/05/09 11:55:30;;;;;;;0.20;0.20;;;23.00;63.00;;;;;;6156266;28;20055;-67
2023/05/09 11:58:32;;;;;;;0.30;0.30;;;23.00;63.40;;;;;;6158196;28;20058;-62
2023/05/09 12:01:35;;;;;;;0.43;0.20;;;22.90;63.00;;;;;;6136149;28;20042;-63
2023/05/09 12:04:37;;;;;;;0.20;0.20;;;23.10;63.30;;;;;;6116748;28;20035;-61
2023/05/09 12:07:40;;;;;;;0.30;0.30;;;23.00;63.20;;;;;;6130105;28;20114;-60
2023/05/09 12:10:41;;;;;;;0.70;0.28;;;23.20;63.10;;;;;;6150496;28;20035;-61
2023/05/09 12:13:47;;;;;;;0.20;0.20;;;23.20;62.90;;;;;;6142486;28;20054;-62
2023/05/09 12:16:49;;;;;;;1.13;0.50;;;23.30;62.80;;;;;;6141864;28;20067;-60
2023/05/09 12:19:51;;;;;;;;;;;23.60;62.70;;;;;;6144957;28;20038;-60
2023/05/09 12:22:53;;;;;;;0.93;0.30;;;23.60;63.00;;;;;;6136970;28;19918;-60
2023/05/09 12:25:56;;;;;;;0.65;0.20;;;23.30;62.40;;;;;;6123722;28;20066;-56
2023/05/09 12:28:58;;;;;;;0.43;0.30;;;21.70;61.40;;;;;;6148720;28;20039;-57
2023/05/09 12:32:02;;;;;;;0.50;0.32;;;23.30;62.20;;;;;;6150357;28;20648;-59
2023/05/09 12:35:05;;;;;;;0.63;0.30;;;23.30;62.20;;;;;;6131356;28;20117;-58
2023/05/09 12:38:06;;;;;;;0.50;0.40;;;23.30;62.20;;;;;;6146842;28;20042;-58
2023/05/09 12:41:10;;;;;;;0.45;0.30;;;23.00;62.00;;;;;;6155018;28;20642;-58
2023/05/09 12:44:33;;;;;;;0.30;0.30;;;23.10;62.00;;;;;;6156524;28;20051;-58
2023/05/09 12:47:37;;;;;;;0.52;0.45;;;23.40;62.40;;;;;;6148255;28;20039;-57
2023/05/09 12:50:46;;;;;;;0.50;0.35;;;23.30;62.50;;;;;;6148969;28;20039;-58
2023/05/09 12:53:48;;;;;;;0.30;0.20;;;23.20;62.30;;;;;;6150363;28;20031;-58
2023/05/09 12:56:51;;;;;;;0.73;0.35;;;23.50;62.70;;;;;;6150653;28;20046;-58
2023/05/09 12:59:58;;;;;;;0.70;0.50;;;23.40;62.50;;;;;;6149438;28;20676;-58
2023/05/09 13:03:00;;;;;;;0.55;0.25;;;23.50;62.50;;;;;;6143114;28;20129;-58
2023/05/09 13:06:03;;;;;;;1.05;0.45;;;23.50;63.20;;;;;;6144988;28;20035;-58
2023/05/09 13:09:05;;;;;;;0.40;0.30;;;23.60;62.30;;;;;;6148140;28;20042;-59
2023/05/09 13:12:08;;;;;;;0.30;0.30;;;23.70;62.40;;;;;;6142924;28;20042;-58
2023/05/09 13:15:11;;;;;;;1.00;0.50;;;23.60;62.50;;;;;;6166788;28;20618;-58
2023/05/09 13:18:13;;;;;;;0.30;0.20;;;23.40;61.90;;;;;;6150011;28;20031;-58
2023/05/09 13:21:15;;;;;;;0.40;0.38;;;23.50;61.60;;;;;;6151316;28;20080;-58
2023/05/09 13:24:18;;;;;;;0.52;0.40;;;23.30;61.70;;;;;;6151054;28;20725;-58
2023/05/09 13:27:19;;;;;;;0.50;0.40;;;23.50;61.40;;;;;;6150787;28;20801;-58
2023/05/09 13:30:21;;;;;;;0.35;0.25;;;23.70;61.60;;;;;;6143173;28;20042;-58
2023/05/09 13:33:23;;;;;;;0.73;0.40;;;23.90;61.30;;;;;;6150453;28;20047;-59
2023/05/09 13:36:27;;;;;;;0.40;0.20;;;23.70;61.20;;;;;;6136538;28;20039;-59
2023/05/09 13:39:30;;;;;;;0.20;0.20;;;23.20;60.80;;;;;;6115151;28;20042;-58
2023/05/09 13:42:33;;;;;;;0.20;0.20;;;23.90;61.00;;;;;;6117731;28;20042;-59
2023/05/09 13:45:35;;;;;;;0.40;0.32;;;23.60;60.50;;;;;;6118610;28;20074;-60
2023/05/09 13:48:38;;;;;;;0.10;0.10;;;23.60;60.40;;;;;;6113713;28;20039;-59
2023/05/09 13:51:41;;;;;;;0.22;0.22;;;23.80;59.90;;;;;;6125487;28;20046;-58
2023/05/09 13:54:43;;;;;;;0.13;0.13;;;23.80;59.80;;;;;;6142683;28;20031;-59
2023/05/09 13:57:45;;;;;;;0.25;0.10;;;23.60;59.60;;;;;;6130991;28;20114;-58
2023/05/09 14:00:47;;;;;;;0.10;0.10;;;23.70;59.10;;;;;;6130264;28;20038;-58
2023/05/09 14:03:48;;;;;;;0.15;0.10;;;23.90;58.50;;;;;;6136032;28;20815;-57
2023/05/09 14:06:50;;;;;;;0.10;0.10;;;23.70;58.70;;;;;;6139671;28;20047;-57
2023/05/09 14:09:52;;;;;;;0.20;0.15;;;23.80;58.60;;;;;;6141425;28;20098;-56
2023/05/09 14:13:11;;;;;;;0.40;0.20;;;23.80;58.40;;;;;;6141358;28;20043;-58
2023/05/09 14:16:13;;;;;;;0.30;0.15;;;23.70;58.10;;;;;;6138859;28;20050;-59
2023/05/09 14:19:17;;;;;;;1.80;0.30;;;23.40;58.10;;;;;;6121575;28;20721;-58
2023/05/09 14:22:21;;;;;;;0.60;0.30;;;23.80;57.70;;;;;;6134601;28;20042;-58
2023/05/09 14:25:23;;;;;;;0.52;0.30;;;23.70;57.40;;;;;;6115877;28;20079;-59
2023/05/09 14:28:24;;;;;;;;;;;23.60;57.20;;;;;;6133091;28;20042;-57
2023/05/09 14:31:27;;;;;;;0.50;0.20;;;24.10;57.80;;;;;;6123433;28;19925;-56
2023/05/09 14:34:29;;;;;;;0.10;0.10;;;24.00;57.20;;;;;;6103925;28;20042;-57
2023/05/09 14:37:30;;;;;;;0.10;0.10;;;23.90;57.20;;;;;;6107711;28;20031;-58
2023/05/09 14:40:33;;;;;;;0.20;0.20;;;24.00;56.40;;;;;;6140041;28;20062;-58
2023/05/09 14:43:36;;;;;;;0.50;0.28;;;23.30;56.40;;;;;;6137759;28;20031;-59
2023/05/09 14:46:38;;;;;;;0.10;0.10;;;23.90;55.90;;;;;;6125635;28;20125;-59
2023/05/09 14:49:40;;;;;;;0.32;0.20;;;24.00;55.80;;;;;;6124276;28;20175;-58
2023/05/09 14:52:44;;;;;;;0.10;0.10;;;24.30;55.70;;;;;;6137657;28;20047;-59
2023/05/09 14:55:45;;;;;;;0.70;0.20;;;24.00;55.60;;;;;;6140090;28;20054;-60
2023/05/09 14:58:47;;;;;;;0.38;0.17;;;24.00;55.70;;;;;;6139783;28;20709;-59
2023/05/09 15:01:50;;;;;;;0.10;0.10;;;24.00;55.60;;;;;;6134869;28;20043;-59
2023/05/09 15:04:52;;;;;;;0.10;0.10;;;23.80;55.30;;;;;;6134206;28;20043;-59
2023/05/09 15:07:55;;;;;;;0.52;0.30;;;24.10;55.40;;;;;;6129682;28;20039;-60
2023/05/09 15:10:57;;;;;;;0.20;0.10;;;23.70;54.70;;;;;;6124457;28;20137;-59
2023/05/09 15:13:58;;;;;;;0.50;0.30;;;24.10;55.30;;;;;;6120063;28;20321;-59
2023/05/09 15:17:02;;;;;;;0.38;0.20;;;24.10;54.90;;;;;;6125377;28;20271;-58
2023/05/09 15:20:05;;;;;;;0.32;0.10;;;24.20;55.30;;;;;;6132981;28;20106;-58
2023/05/09 15:23:07;;;;;;;0.20;0.20;;;24.10;55.10;;;;;;6131700;28;20051;-59
2023/05/09 15:26:12;;;;;;;1.48;0.20;;;24.00;55.40;;;;;;6131335;28;20051;-59
2023/05/09 15:29:14;;;;;;;0.25;0.20;;;24.60;55.90;;;;;;6132993;28;20046;-59
2023/05/09 15:32:16;;;;;;;0.32;0.10;;;24.20;55.70;;;;;;6130390;28;20630;-59
2023/05/09 15:35:17;;;;;;;0.20;0.20;;;23.90;55.50;;;;;;6131046;28;20039;-59
2023/05/09 15:38:20;;;;;;;0.10;0.10;;;23.90;55.70;;;;;;6158138;28;20035;-64
2023/05/09 15:44:57;;;;;;;;;;;24.20;53.50;;;;;;6200964;28;20039;-65
2023/05/09 15:47:59;;;;;;;0.20;0.10;;;24.20;53.60;;;;;;6217621;28;20230;-64
2023/05/09 15:51:02;;;;;;;0.40;0.20;;;24.20;55.90;;;;;;6217290;28;20077;-65
2023/05/09 15:54:04;;;;;;;0.35;0.20;;;24.10;56.00;;;;;;6203975;28;20035;-66
2023/05/09 15:57:06;;;;;;;0.57;0.15;;;23.90;55.70;;;;;;6194269;28;20046;-66
2023/05/09 16:00:16;;;;;;;0.43;0.28;;;24.20;56.00;;;;;;6199656;23;20049;-90
2023/05/09 16:03:24;;;;;;;0.10;0.10;;;20.60;55.00;;;;;;6144008;28;20329;-89
2023/05/09 16:06:29;;;;;;;0.10;0.10;;;20.80;61.10;;;;;;6149187;28;20046;-90